sensor_id;sensor_type;location;lat;lon;timestamp;temperature;humidity
66670;DHT22;53568;52.164;4.472;2024-03-25T00:02:06;9.06;69.94
66670;DHT22;53568;52.164;4.472;2024-03-25T00:04:31;9.09;69.98
66670;DHT22;53568;52.164;4.472;2024-03-25T00:06:57;9.09;70.03
66670;DHT22;53568;52.164;4.472;2024-03-25T00:09:23;9.07;70.15
66670;DHT22;53568;52.164;4.472;2024-03-25T00:11:49;9.00;70.29
66670;DHT22;53568;52.164;4.472;2024-03-25T00:14:20;8.97;70.41
66670;DHT22;53568;52.164;4.472;2024-03-25T00:16:45;8.99;70.48
66670;DHT22;53568;52.164;4.472;2024-03-25T00:19:12;8.89;70.93
66670;DHT22;53568;52.164;4.472;2024-03-25T00:21:37;8.90;71.06
66670;DHT22;53568;52.164;4.472;2024-03-25T00:24:03;8.97;70.72
66670;DHT22;53568;52.164;4.472;2024-03-25T00:26:29;8.93;70.82
66670;DHT22;53568;52.164;4.472;2024-03-25T00:28:54;8.99;70.52
66670;DHT22;53568;52.164;4.472;2024-03-25T00:31:20;9.06;70.44
66670;DHT22;53568;52.164;4.472;2024-03-25T00:33:45;8.87;70.89
66670;DHT22;53568;52.164;4.472;2024-03-25T00:36:11;8.99;70.75
66670;DHT22;53568;52.164;4.472;2024-03-25T00:38:36;9.06;70.62
66670;DHT22;53568;52.164;4.472;2024-03-25T00:41:02;9.00;70.52
66670;DHT22;53568;52.164;4.472;2024-03-25T00:43:27;8.95;70.59
66670;DHT22;53568;52.164;4.472;2024-03-25T00:45:53;8.97;70.67
66670;DHT22;53568;52.164;4.472;2024-03-25T00:48:18;9.05;70.65
66670;DHT22;53568;52.164;4.472;2024-03-25T00:50:44;9.06;70.45
66670;DHT22;53568;52.164;4.472;2024-03-25T00:53:09;9.09;70.12
66670;DHT22;53568;52.164;4.472;2024-03-25T00:55:35;9.03;70.26
66670;DHT22;53568;52.164;4.472;2024-03-25T00:58:03;9.02;70.13
66670;DHT22;53568;52.164;4.472;2024-03-25T01:00:29;9.03;70.30
66670;DHT22;53568;52.164;4.472;2024-03-25T01:02:55;9.07;70.38
66670;DHT22;53568;52.164;4.472;2024-03-25T01:05:21;9.13;70.33
66670;DHT22;53568;52.164;4.472;2024-03-25T01:07:46;9.10;70.60
66670;DHT22;53568;52.164;4.472;2024-03-25T01:10:12;9.10;70.65
66670;DHT22;53568;52.164;4.472;2024-03-25T01:12:37;9.06;70.69
66670;DHT22;53568;52.164;4.472;2024-03-25T01:15:06;9.15;70.61
66670;DHT22;53568;52.164;4.472;2024-03-25T01:17:32;9.10;70.14
66670;DHT22;53568;52.164;4.472;2024-03-25T01:19:58;9.06;70.02
66670;DHT22;53568;52.164;4.472;2024-03-25T01:22:23;9.00;70.12
66670;DHT22;53568;52.164;4.472;2024-03-25T01:24:49;8.99;70.13
66670;DHT22;53568;52.164;4.472;2024-03-25T01:27:14;8.99;69.80
66670;DHT22;53568;52.164;4.472;2024-03-25T01:29:40;9.00;69.62
66670;DHT22;53568;52.164;4.472;2024-03-25T01:32:06;9.00;69.52
66670;DHT22;53568;52.164;4.472;2024-03-25T01:34:32;9.07;69.46
66670;DHT22;53568;52.164;4.472;2024-03-25T01:36:57;9.05;69.30
66670;DHT22;53568;52.164;4.472;2024-03-25T01:39:23;9.05;69.32
66670;DHT22;53568;52.164;4.472;2024-03-25T01:41:50;9.09;69.25
66670;DHT22;53568;52.164;4.472;2024-03-25T01:44:16;9.10;69.33
66670;DHT22;53568;52.164;4.472;2024-03-25T01:46:42;9.10;69.16
66670;DHT22;53568;52.164;4.472;2024-03-25T01:49:08;9.15;69.14
66670;DHT22;53568;52.164;4.472;2024-03-25T01:51:34;9.15;69.07
66670;DHT22;53568;52.164;4.472;2024-03-25T01:54:01;9.20;68.95
66670;DHT22;53568;52.164;4.472;2024-03-25T01:56:31;9.22;68.90
66670;DHT22;53568;52.164;4.472;2024-03-25T01:58:59;9.24;68.82
66670;DHT22;53568;52.164;4.472;2024-03-25T02:01:25;9.27;68.69
66670;DHT22;53568;52.164;4.472;2024-03-25T02:03:52;9.26;68.73
66670;DHT22;53568;52.164;4.472;2024-03-25T02:06:21;9.27;68.81
66670;DHT22;53568;52.164;4.472;2024-03-25T02:08:48;9.28;68.78
66670;DHT22;53568;52.164;4.472;2024-03-25T02:11:15;9.27;68.64
66670;DHT22;53568;52.164;4.472;2024-03-25T02:13:41;9.27;68.72
66670;DHT22;53568;52.164;4.472;2024-03-25T02:16:07;9.28;68.76
66670;DHT22;53568;52.164;4.472;2024-03-25T02:18:33;9.31;68.76
66670;DHT22;53568;52.164;4.472;2024-03-25T02:20:59;9.30;68.72
66670;DHT22;53568;52.164;4.472;2024-03-25T02:23:25;9.33;68.64
66670;DHT22;53568;52.164;4.472;2024-03-25T02:25:54;9.26;68.83
66670;DHT22;53568;52.164;4.472;2024-03-25T02:28:20;9.23;69.06
66670;DHT22;53568;52.164;4.472;2024-03-25T02:30:46;9.20;69.21
66670;DHT22;53568;52.164;4.472;2024-03-25T02:33:13;9.22;69.17
66670;DHT22;53568;52.164;4.472;2024-03-25T02:35:40;9.20;69.26
66670;DHT22;53568;52.164;4.472;2024-03-25T02:38:08;9.20;69.34
66670;DHT22;53568;52.164;4.472;2024-03-25T02:40:35;9.22;69.35
66670;DHT22;53568;52.164;4.472;2024-03-25T02:43:01;9.23;69.31
66670;DHT22;53568;52.164;4.472;2024-03-25T02:45:27;9.22;69.30
66670;DHT22;53568;52.164;4.472;2024-03-25T02:47:53;9.26;69.26
66670;DHT22;53568;52.164;4.472;2024-03-25T02:50:19;9.26;69.15
66670;DHT22;53568;52.164;4.472;2024-03-25T02:52:44;9.26;69.12
66670;DHT22;53568;52.164;4.472;2024-03-25T02:55:10;9.27;69.01
66670;DHT22;53568;52.164;4.472;2024-03-25T02:57:35;9.28;68.96
66670;DHT22;53568;52.164;4.472;2024-03-25T03:00:01;9.28;68.92
66670;DHT22;53568;52.164;4.472;2024-03-25T03:02:27;9.27;68.94
66670;DHT22;53568;52.164;4.472;2024-03-25T03:04:52;9.23;68.91
66670;DHT22;53568;52.164;4.472;2024-03-25T03:07:18;9.19;68.75
66670;DHT22;53568;52.164;4.472;2024-03-25T03:09:44;9.15;68.76
66670;DHT22;53568;52.164;4.472;2024-03-25T03:12:09;9.09;68.81
66670;DHT22;53568;52.164;4.472;2024-03-25T03:14:34;9.07;68.93
66670;DHT22;53568;52.164;4.472;2024-03-25T03:17:00;9.07;68.87
66670;DHT22;53568;52.164;4.472;2024-03-25T03:19:30;9.05;68.54
66670;DHT22;53568;52.164;4.472;2024-03-25T03:21:56;9.00;68.54
66670;DHT22;53568;52.164;4.472;2024-03-25T03:24:22;9.03;68.51
66670;DHT22;53568;52.164;4.472;2024-03-25T03:26:48;9.02;68.34
66670;DHT22;53568;52.164;4.472;2024-03-25T03:29:14;8.99;68.33
66670;DHT22;53568;52.164;4.472;2024-03-25T03:31:39;9.02;68.25
66670;DHT22;53568;52.164;4.472;2024-03-25T03:34:04;8.97;68.42
66670;DHT22;53568;52.164;4.472;2024-03-25T03:36:30;8.95;68.56
66670;DHT22;53568;52.164;4.472;2024-03-25T03:38:55;8.87;68.73
66670;DHT22;53568;52.164;4.472;2024-03-25T03:41:21;8.85;68.85
66670;DHT22;53568;52.164;4.472;2024-03-25T03:43:46;8.82;68.96
66670;DHT22;53568;52.164;4.472;2024-03-25T03:46:12;8.79;69.01
66670;DHT22;53568;52.164;4.472;2024-03-25T03:48:38;8.73;69.12
66670;DHT22;53568;52.164;4.472;2024-03-25T03:51:05;8.66;69.20
66670;DHT22;53568;52.164;4.472;2024-03-25T03:53:31;8.62;69.52
66670;DHT22;53568;52.164;4.472;2024-03-25T03:55:58;8.56;69.65
66670;DHT22;53568;52.164;4.472;2024-03-25T03:58:25;8.49;69.94
66670;DHT22;53568;52.164;4.472;2024-03-25T04:00:51;8.44;69.97
66670;DHT22;53568;52.164;4.472;2024-03-25T04:03:18;8.38;70.37
66670;DHT22;53568;52.164;4.472;2024-03-25T04:05:43;8.37;70.46
66670;DHT22;53568;52.164;4.472;2024-03-25T04:08:09;8.32;70.59
66670;DHT22;53568;52.164;4.472;2024-03-25T04:10:35;8.29;70.63
66670;DHT22;53568;52.164;4.472;2024-03-25T04:13:02;8.28;70.78
66670;DHT22;53568;52.164;4.472;2024-03-25T04:15:27;8.27;70.91
66670;DHT22;53568;52.164;4.472;2024-03-25T04:17:53;8.24;71.08
66670;DHT22;53568;52.164;4.472;2024-03-25T04:20:19;8.25;71.11
66670;DHT22;53568;52.164;4.472;2024-03-25T04:22:46;8.24;71.27
66670;DHT22;53568;52.164;4.472;2024-03-25T04:25:13;8.21;71.32
66670;DHT22;53568;52.164;4.472;2024-03-25T04:27:42;8.20;71.31
66670;DHT22;53568;52.164;4.472;2024-03-25T04:30:09;8.14;71.38
66670;DHT22;53568;52.164;4.472;2024-03-25T04:32:35;8.14;71.64
66670;DHT22;53568;52.164;4.472;2024-03-25T04:35:02;8.14;71.62
66670;DHT22;53568;52.164;4.472;2024-03-25T04:37:28;8.09;71.74
66670;DHT22;53568;52.164;4.472;2024-03-25T04:39:55;8.09;71.93
66670;DHT22;53568;52.164;4.472;2024-03-25T04:42:22;8.05;71.98
66670;DHT22;53568;52.164;4.472;2024-03-25T04:44:48;8.07;71.94
66670;DHT22;53568;52.164;4.472;2024-03-25T04:47:13;8.07;72.03
66670;DHT22;53568;52.164;4.472;2024-03-25T04:49:41;8.04;72.14
66670;DHT22;53568;52.164;4.472;2024-03-25T04:52:07;8.07;72.09
66670;DHT22;53568;52.164;4.472;2024-03-25T04:54:32;8.05;71.96
66670;DHT22;53568;52.164;4.472;2024-03-25T04:56:58;8.02;72.16
66670;DHT22;53568;52.164;4.472;2024-03-25T04:59:23;8.01;72.21
66670;DHT22;53568;52.164;4.472;2024-03-25T05:01:49;8.01;72.12
66670;DHT22;53568;52.164;4.472;2024-03-25T05:04:14;7.97;72.34
66670;DHT22;53568;52.164;4.472;2024-03-25T05:06:40;7.97;72.32
66670;DHT22;53568;52.164;4.472;2024-03-25T05:09:05;7.99;72.19
66670;DHT22;53568;52.164;4.472;2024-03-25T05:11:32;7.95;72.23
66670;DHT22;53568;52.164;4.472;2024-03-25T05:13:58;7.94;72.49
66670;DHT22;53568;52.164;4.472;2024-03-25T05:16:23;7.91;72.72
66670;DHT22;53568;52.164;4.472;2024-03-25T05:18:49;7.90;72.66
66670;DHT22;53568;52.164;4.472;2024-03-25T05:21:14;7.88;72.59
66670;DHT22;53568;52.164;4.472;2024-03-25T05:23:40;7.90;72.82
66670;DHT22;53568;52.164;4.472;2024-03-25T05:26:05;7.85;73.08
66670;DHT22;53568;52.164;4.472;2024-03-25T05:28:31;7.88;73.01
66670;DHT22;53568;52.164;4.472;2024-03-25T05:30:56;7.84;73.27
66670;DHT22;53568;52.164;4.472;2024-03-25T05:33:22;7.83;73.40
66670;DHT22;53568;52.164;4.472;2024-03-25T05:35:47;7.84;73.33
66670;DHT22;53568;52.164;4.472;2024-03-25T05:38:13;7.83;73.47
66670;DHT22;53568;52.164;4.472;2024-03-25T05:40:38;7.78;73.55
66670;DHT22;53568;52.164;4.472;2024-03-25T05:43:04;7.81;73.49
66670;DHT22;53568;52.164;4.472;2024-03-25T05:45:30;7.85;73.40
66670;DHT22;53568;52.164;4.472;2024-03-25T05:47:55;7.91;73.06
66670;DHT22;53568;52.164;4.472;2024-03-25T05:50:20;7.93;73.04
66670;DHT22;53568;52.164;4.472;2024-03-25T05:52:46;7.94;72.97
66670;DHT22;53568;52.164;4.472;2024-03-25T05:55:12;7.90;73.16
66670;DHT22;53568;52.164;4.472;2024-03-25T05:57:37;7.90;73.22
66670;DHT22;53568;52.164;4.472;2024-03-25T06:00:04;7.90;73.35
66670;DHT22;53568;52.164;4.472;2024-03-25T06:02:29;7.88;73.41
66670;DHT22;53568;52.164;4.472;2024-03-25T06:04:55;7.91;73.25
66670;DHT22;53568;52.164;4.472;2024-03-25T06:07:23;7.87;73.34
66670;DHT22;53568;52.164;4.472;2024-03-25T06:09:49;7.85;73.61
66670;DHT22;53568;52.164;4.472;2024-03-25T06:12:14;7.87;73.48
66670;DHT22;53568;52.164;4.472;2024-03-25T06:14:40;7.87;73.46
66670;DHT22;53568;52.164;4.472;2024-03-25T06:17:05;7.87;73.57
66670;DHT22;53568;52.164;4.472;2024-03-25T06:19:31;7.88;73.70
66670;DHT22;53568;52.164;4.472;2024-03-25T06:21:57;7.85;73.83
66670;DHT22;53568;52.164;4.472;2024-03-25T06:24:22;7.90;73.93
66670;DHT22;53568;52.164;4.472;2024-03-25T06:26:49;7.90;73.83
66670;DHT22;53568;52.164;4.472;2024-03-25T06:29:14;7.91;73.93
66670;DHT22;53568;52.164;4.472;2024-03-25T06:31:40;7.95;74.01
66670;DHT22;53568;52.164;4.472;2024-03-25T06:34:24;7.98;74.28
66670;DHT22;53568;52.164;4.472;2024-03-25T06:36:49;8.04;74.28
66670;DHT22;53568;52.164;4.472;2024-03-25T06:39:15;8.11;74.07
66670;DHT22;53568;52.164;4.472;2024-03-25T06:41:41;8.14;73.92
66670;DHT22;53568;52.164;4.472;2024-03-25T06:44:07;8.18;73.89
66670;DHT22;53568;52.164;4.472;2024-03-25T06:46:33;8.22;73.75
66670;DHT22;53568;52.164;4.472;2024-03-25T06:48:59;8.25;73.80
66670;DHT22;53568;52.164;4.472;2024-03-25T06:51:25;8.31;73.89
66670;DHT22;53568;52.164;4.472;2024-03-25T06:53:50;8.34;73.82
66670;DHT22;53568;52.164;4.472;2024-03-25T06:56:16;8.46;73.69
66670;DHT22;53568;52.164;4.472;2024-03-25T06:58:42;8.51;73.82
66670;DHT22;53568;52.164;4.472;2024-03-25T07:01:09;8.59;73.79
66670;DHT22;53568;52.164;4.472;2024-03-25T07:03:37;8.68;73.64
66670;DHT22;53568;52.164;4.472;2024-03-25T07:06:03;8.62;73.63
66670;DHT22;53568;52.164;4.472;2024-03-25T07:08:29;8.73;73.68
66670;DHT22;53568;52.164;4.472;2024-03-25T07:10:56;8.76;73.57
66670;DHT22;53568;52.164;4.472;2024-03-25T07:13:22;8.87;73.35
66670;DHT22;53568;52.164;4.472;2024-03-25T07:15:48;8.96;73.15
66670;DHT22;53568;52.164;4.472;2024-03-25T07:18:13;8.97;73.19
66670;DHT22;53568;52.164;4.472;2024-03-25T07:20:40;9.00;72.93
66670;DHT22;53568;52.164;4.472;2024-03-25T07:23:06;8.90;73.25
66670;DHT22;53568;52.164;4.472;2024-03-25T07:25:32;8.90;73.16
66670;DHT22;53568;52.164;4.472;2024-03-25T07:27:57;8.97;73.31
66670;DHT22;53568;52.164;4.472;2024-03-25T07:30:23;8.93;73.48
66670;DHT22;53568;52.164;4.472;2024-03-25T07:32:53;8.93;73.79
66670;DHT22;53568;52.164;4.472;2024-03-25T07:35:18;9.03;73.46
66670;DHT22;53568;52.164;4.472;2024-03-25T07:37:44;9.00;73.51
66670;DHT22;53568;52.164;4.472;2024-03-25T07:40:10;9.02;73.87
66670;DHT22;53568;52.164;4.472;2024-03-25T07:42:37;9.13;73.95
66670;DHT22;53568;52.164;4.472;2024-03-25T07:45:03;9.36;73.47
66670;DHT22;53568;52.164;4.472;2024-03-25T07:47:30;9.48;73.22
66670;DHT22;53568;52.164;4.472;2024-03-25T07:49:55;9.51;73.08
66670;DHT22;53568;52.164;4.472;2024-03-25T07:52:21;9.61;72.86
66670;DHT22;53568;52.164;4.472;2024-03-25T07:54:47;9.57;72.91
66670;DHT22;53568;52.164;4.472;2024-03-25T07:57:12;9.67;72.73
66670;DHT22;53568;52.164;4.472;2024-03-25T07:59:38;9.81;72.43
66670;DHT22;53568;52.164;4.472;2024-03-25T08:02:04;9.84;71.85
66670;DHT22;53568;52.164;4.472;2024-03-25T08:04:29;9.84;71.87
66670;DHT22;53568;52.164;4.472;2024-03-25T08:06:54;9.95;71.96
66670;DHT22;53568;52.164;4.472;2024-03-25T08:09:20;9.97;71.98
66670;DHT22;53568;52.164;4.472;2024-03-25T08:11:45;10.05;71.76
66670;DHT22;53568;52.164;4.472;2024-03-25T08:14:11;10.21;71.69
66670;DHT22;53568;52.164;4.472;2024-03-25T08:16:37;10.35;70.91
66670;DHT22;53568;52.164;4.472;2024-03-25T08:19:03;10.22;70.71
66670;DHT22;53568;52.164;4.472;2024-03-25T08:21:28;10.09;71.28
66670;DHT22;53568;52.164;4.472;2024-03-25T08:23:54;10.18;70.81
66670;DHT22;53568;52.164;4.472;2024-03-25T08:26:19;10.15;70.56
66670;DHT22;53568;52.164;4.472;2024-03-25T08:28:45;10.01;71.21
66670;DHT22;53568;52.164;4.472;2024-03-25T08:31:10;9.97;71.28
66670;DHT22;53568;52.164;4.472;2024-03-25T08:33:36;9.99;71.23
66670;DHT22;53568;52.164;4.472;2024-03-25T08:36:01;10.11;71.31
66670;DHT22;53568;52.164;4.472;2024-03-25T08:38:27;10.15;71.60
66670;DHT22;53568;52.164;4.472;2024-03-25T08:40:53;10.22;71.56
66670;DHT22;53568;52.164;4.472;2024-03-25T08:43:19;10.16;72.16
66670;DHT22;53568;52.164;4.472;2024-03-25T08:45:45;10.31;71.92
66670;DHT22;53568;52.164;4.472;2024-03-25T08:48:11;10.31;70.88
66670;DHT22;53568;52.164;4.472;2024-03-25T08:50:36;10.36;71.10
66670;DHT22;53568;52.164;4.472;2024-03-25T08:53:03;10.39;71.04
66670;DHT22;53568;52.164;4.472;2024-03-25T08:55:29;10.53;70.53
66670;DHT22;53568;52.164;4.472;2024-03-25T08:57:54;10.48;70.38
66670;DHT22;53568;52.164;4.472;2024-03-25T09:00:20;10.50;70.62
66670;DHT22;53568;52.164;4.472;2024-03-25T09:02:46;10.58;70.52
66670;DHT22;53568;52.164;4.472;2024-03-25T09:05:11;10.69;69.65
66670;DHT22;53568;52.164;4.472;2024-03-25T09:07:39;10.66;69.78
66670;DHT22;53568;52.164;4.472;2024-03-25T09:10:04;10.76;69.73
66670;DHT22;53568;52.164;4.472;2024-03-25T09:12:49;10.86;69.21
66670;DHT22;53568;52.164;4.472;2024-03-25T09:15:14;10.90;69.50
66670;DHT22;53568;52.164;4.472;2024-03-25T09:17:40;10.89;69.17
66670;DHT22;53568;52.164;4.472;2024-03-25T09:20:06;10.89;69.59
66670;DHT22;53568;52.164;4.472;2024-03-25T09:22:46;11.07;68.86
66670;DHT22;53568;52.164;4.472;2024-03-25T09:25:14;11.10;69.26
66670;DHT22;53568;52.164;4.472;2024-03-25T09:27:40;11.16;69.15
66670;DHT22;53568;52.164;4.472;2024-03-25T09:30:06;11.10;69.43
66670;DHT22;53568;52.164;4.472;2024-03-25T09:32:34;11.20;69.38
66670;DHT22;53568;52.164;4.472;2024-03-25T09:35:00;11.30;68.75
66670;DHT22;53568;52.164;4.472;2024-03-25T09:37:25;11.26;69.03
66670;DHT22;53568;52.164;4.472;2024-03-25T09:39:52;11.41;68.63
66670;DHT22;53568;52.164;4.472;2024-03-25T09:42:26;11.53;68.71
66670;DHT22;53568;52.164;4.472;2024-03-25T09:44:54;11.54;68.50
66670;DHT22;53568;52.164;4.472;2024-03-25T09:47:21;11.63;67.55
66670;DHT22;53568;52.164;4.472;2024-03-25T09:49:47;11.61;67.27
66670;DHT22;53568;52.164;4.472;2024-03-25T09:52:14;11.56;67.86
66670;DHT22;53568;52.164;4.472;2024-03-25T09:54:40;11.73;67.58
66670;DHT22;53568;52.164;4.472;2024-03-25T09:57:06;11.78;66.92
66670;DHT22;53568;52.164;4.472;2024-03-25T09:59:33;11.70;66.56
66670;DHT22;53568;52.164;4.472;2024-03-25T10:01:59;11.78;66.95
66670;DHT22;53568;52.164;4.472;2024-03-25T10:04:26;11.92;66.83
66670;DHT22;53568;52.164;4.472;2024-03-25T10:06:51;11.99;66.24
66670;DHT22;53568;52.164;4.472;2024-03-25T10:09:20;11.95;66.36
66670;DHT22;53568;52.164;4.472;2024-03-25T10:11:49;12.05;65.45
66670;DHT22;53568;52.164;4.472;2024-03-25T10:14:18;12.08;65.43
66670;DHT22;53568;52.164;4.472;2024-03-25T10:16:48;12.08;64.80
66670;DHT22;53568;52.164;4.472;2024-03-25T10:19:17;12.05;64.78
66670;DHT22;53568;52.164;4.472;2024-03-25T10:21:42;12.06;64.64
66670;DHT22;53568;52.164;4.472;2024-03-25T10:24:08;12.32;64.07
66670;DHT22;53568;52.164;4.472;2024-03-25T10:26:34;12.42;63.47
66670;DHT22;53568;52.164;4.472;2024-03-25T10:29:05;12.41;63.10
66670;DHT22;53568;52.164;4.472;2024-03-25T10:31:34;12.52;63.03
66670;DHT22;53568;52.164;4.472;2024-03-25T10:34:00;12.62;61.28
66670;DHT22;53568;52.164;4.472;2024-03-25T10:36:26;12.67;60.63
66670;DHT22;53568;52.164;4.472;2024-03-25T10:38:55;12.77;61.15
66670;DHT22;53568;52.164;4.472;2024-03-25T10:41:21;13.04;60.32
66670;DHT22;53568;52.164;4.472;2024-03-25T10:43:48;13.11;58.70
66670;DHT22;53568;52.164;4.472;2024-03-25T10:46:19;13.10;58.61
66670;DHT22;53568;52.164;4.472;2024-03-25T10:49:22;13.04;58.59
66670;DHT22;53568;52.164;4.472;2024-03-25T10:51:52;13.14;57.53
66670;DHT22;53568;52.164;4.472;2024-03-25T10:54:18;13.27;56.20
66670;DHT22;53568;52.164;4.472;2024-03-25T10:56:44;13.21;54.95
66670;DHT22;53568;52.164;4.472;2024-03-25T10:59:12;13.24;55.52
66670;DHT22;53568;52.164;4.472;2024-03-25T11:01:38;13.23;55.84
66670;DHT22;53568;52.164;4.472;2024-03-25T11:04:04;13.46;54.82
66670;DHT22;53568;52.164;4.472;2024-03-25T11:06:31;13.31;52.82
66670;DHT22;53568;52.164;4.472;2024-03-25T11:08:58;13.11;52.96
66670;DHT22;53568;52.164;4.472;2024-03-25T11:11:31;12.97;54.42
66670;DHT22;53568;52.164;4.472;2024-03-25T11:13:57;12.96;54.25
66670;DHT22;53568;52.164;4.472;2024-03-25T11:16:28;13.11;53.81
66670;DHT22;53568;52.164;4.472;2024-03-25T11:18:54;13.19;54.69
66670;DHT22;53568;52.164;4.472;2024-03-25T11:21:26;13.30;54.39
66670;DHT22;53568;52.164;4.472;2024-03-25T11:23:51;13.34;52.83
66670;DHT22;53568;52.164;4.472;2024-03-25T11:26:24;13.24;50.30
66670;DHT22;53568;52.164;4.472;2024-03-25T11:28:50;13.40;51.08
66670;DHT22;53568;52.164;4.472;2024-03-25T11:31:16;13.40;51.26
66670;DHT22;53568;52.164;4.472;2024-03-25T11:33:42;13.54;52.97
66670;DHT22;53568;52.164;4.472;2024-03-25T11:36:09;13.70;52.17
66670;DHT22;53568;52.164;4.472;2024-03-25T11:38:34;13.48;52.32
66670;DHT22;53568;52.164;4.472;2024-03-25T11:41:00;13.41;48.96
66670;DHT22;53568;52.164;4.472;2024-03-25T11:43:26;13.41;46.98
66670;DHT22;53568;52.164;4.472;2024-03-25T11:45:52;13.14;48.53
66670;DHT22;53568;52.164;4.472;2024-03-25T11:48:19;12.99;47.86
66670;DHT22;53568;52.164;4.472;2024-03-25T11:50:46;12.89;42.69
66670;DHT22;53568;52.164;4.472;2024-03-25T11:53:15;12.89;44.05
66670;DHT22;53568;52.164;4.472;2024-03-25T11:55:45;12.92;44.63
66670;DHT22;53568;52.164;4.472;2024-03-25T11:58:11;13.06;46.48
66670;DHT22;53568;52.164;4.472;2024-03-25T12:00:46;13.19;46.76
66670;DHT22;53568;52.164;4.472;2024-03-25T12:03:16;13.26;46.72
66670;DHT22;53568;52.164;4.472;2024-03-25T12:05:44;13.44;46.48
66670;DHT22;53568;52.164;4.472;2024-03-25T12:08:10;13.46;45.83
66670;DHT22;53568;52.164;4.472;2024-03-25T12:10:37;13.44;45.72
66670;DHT22;53568;52.164;4.472;2024-03-25T12:13:22;13.44;44.55
66670;DHT22;53568;52.164;4.472;2024-03-25T12:15:49;13.40;45.03
66670;DHT22;53568;52.164;4.472;2024-03-25T12:18:15;13.48;45.66
66670;DHT22;53568;52.164;4.472;2024-03-25T12:20:41;13.58;45.18
66670;DHT22;53568;52.164;4.472;2024-03-25T12:23:07;13.44;46.62
66670;DHT22;53568;52.164;4.472;2024-03-25T12:25:33;13.60;46.15
66670;DHT22;53568;52.164;4.472;2024-03-25T12:27:58;13.73;45.51
66670;DHT22;53568;52.164;4.472;2024-03-25T12:30:24;13.57;46.01
66670;DHT22;53568;52.164;4.472;2024-03-25T12:32:50;13.71;46.73
66670;DHT22;53568;52.164;4.472;2024-03-25T12:35:17;13.84;47.06
66670;DHT22;53568;52.164;4.472;2024-03-25T12:37:45;13.78;47.22
66670;DHT22;53568;52.164;4.472;2024-03-25T12:40:12;13.74;47.05
66670;DHT22;53568;52.164;4.472;2024-03-25T12:42:40;13.82;47.04
66670;DHT22;53568;52.164;4.472;2024-03-25T12:45:06;13.87;47.50
66670;DHT22;53568;52.164;4.472;2024-03-25T12:47:33;14.01;47.76
66670;DHT22;53568;52.164;4.472;2024-03-25T12:49:58;14.05;47.66
66670;DHT22;53568;52.164;4.472;2024-03-25T12:52:25;14.07;48.25
66670;DHT22;53568;52.164;4.472;2024-03-25T12:54:51;14.04;47.90
66670;DHT22;53568;52.164;4.472;2024-03-25T12:57:16;13.88;48.82
66670;DHT22;53568;52.164;4.472;2024-03-25T12:59:43;13.85;47.99
66670;DHT22;53568;52.164;4.472;2024-03-25T13:02:11;13.67;48.55
66670;DHT22;53568;52.164;4.472;2024-03-25T13:04:37;13.57;48.74
66670;DHT22;53568;52.164;4.472;2024-03-25T13:07:04;13.57;48.96
66670;DHT22;53568;52.164;4.472;2024-03-25T13:09:29;13.73;48.61
66670;DHT22;53568;52.164;4.472;2024-03-25T13:11:58;13.71;48.37
66670;DHT22;53568;52.164;4.472;2024-03-25T13:14:24;13.54;48.16
66670;DHT22;53568;52.164;4.472;2024-03-25T13:16:50;13.61;48.39
66670;DHT22;53568;52.164;4.472;2024-03-25T13:19:16;13.74;48.78
66670;DHT22;53568;52.164;4.472;2024-03-25T13:21:42;13.71;48.69
66670;DHT22;53568;52.164;4.472;2024-03-25T13:24:07;13.74;48.64
66670;DHT22;53568;52.164;4.472;2024-03-25T13:26:33;13.85;48.03
66670;DHT22;53568;52.164;4.472;2024-03-25T13:28:59;14.14;47.82
66670;DHT22;53568;52.164;4.472;2024-03-25T13:31:25;14.07;47.66
66670;DHT22;53568;52.164;4.472;2024-03-25T13:33:51;14.04;47.10
66670;DHT22;53568;52.164;4.472;2024-03-25T13:36:17;14.07;46.96
66670;DHT22;53568;52.164;4.472;2024-03-25T13:38:42;13.85;47.49
66670;DHT22;53568;52.164;4.472;2024-03-25T13:41:08;13.74;48.11
66670;DHT22;53568;52.164;4.472;2024-03-25T13:43:33;13.60;48.76
66670;DHT22;53568;52.164;4.472;2024-03-25T13:45:59;13.71;48.50
66670;DHT22;53568;52.164;4.472;2024-03-25T13:48:24;13.70;49.59
66670;DHT22;53568;52.164;4.472;2024-03-25T13:50:53;13.58;49.78
66670;DHT22;53568;52.164;4.472;2024-03-25T13:53:19;13.77;49.22
66670;DHT22;53568;52.164;4.472;2024-03-25T13:55:44;13.84;48.31
66670;DHT22;53568;52.164;4.472;2024-03-25T13:58:10;13.95;48.39
66670;DHT22;53568;52.164;4.472;2024-03-25T14:00:35;14.11;47.28
66670;DHT22;53568;52.164;4.472;2024-03-25T14:03:02;14.08;47.34
66670;DHT22;53568;52.164;4.472;2024-03-25T14:05:27;14.28;46.18
66670;DHT22;53568;52.164;4.472;2024-03-25T14:07:53;14.43;46.19
66670;DHT22;53568;52.164;4.472;2024-03-25T14:10:18;14.45;47.13
66670;DHT22;53568;52.164;4.472;2024-03-25T14:12:44;14.61;46.59
66670;DHT22;53568;52.164;4.472;2024-03-25T14:15:09;14.32;46.96
66670;DHT22;53568;52.164;4.472;2024-03-25T14:17:35;14.28;47.13
66670;DHT22;53568;52.164;4.472;2024-03-25T14:20:00;14.28;44.84
66670;DHT22;53568;52.164;4.472;2024-03-25T14:22:26;14.31;45.86
66670;DHT22;53568;52.164;4.472;2024-03-25T14:24:52;14.39;45.29
66670;DHT22;53568;52.164;4.472;2024-03-25T14:27:25;14.36;45.88
66670;DHT22;53568;52.164;4.472;2024-03-25T14:29:51;14.49;44.64
66670;DHT22;53568;52.164;4.472;2024-03-25T14:32:21;14.38;44.03
66670;DHT22;53568;52.164;4.472;2024-03-25T14:34:47;14.25;44.28
66670;DHT22;53568;52.164;4.472;2024-03-25T14:37:14;14.26;44.53
66670;DHT22;53568;52.164;4.472;2024-03-25T14:39:40;14.29;44.56
66670;DHT22;53568;52.164;4.472;2024-03-25T14:42:08;14.32;43.56
66670;DHT22;53568;52.164;4.472;2024-03-25T14:44:35;14.33;44.47
66670;DHT22;53568;52.164;4.472;2024-03-25T14:47:01;14.38;42.86
66670;DHT22;53568;52.164;4.472;2024-03-25T14:49:27;14.45;42.62
66670;DHT22;53568;52.164;4.472;2024-03-25T14:51:52;14.49;42.22
66670;DHT22;53568;52.164;4.472;2024-03-25T14:54:18;14.24;42.39
66670;DHT22;53568;52.164;4.472;2024-03-25T14:56:47;14.24;41.52
66670;DHT22;53568;52.164;4.472;2024-03-25T14:59:13;14.25;41.78
66670;DHT22;53568;52.164;4.472;2024-03-25T15:01:39;14.39;42.04
66670;DHT22;53568;52.164;4.472;2024-03-25T15:04:05;14.41;42.25
66670;DHT22;53568;52.164;4.472;2024-03-25T15:06:31;14.45;43.20
66670;DHT22;53568;52.164;4.472;2024-03-25T15:08:58;14.42;44.09
66670;DHT22;53568;52.164;4.472;2024-03-25T15:11:24;14.38;42.15
66670;DHT22;53568;52.164;4.472;2024-03-25T15:13:53;14.31;42.26
66670;DHT22;53568;52.164;4.472;2024-03-25T15:16:19;14.26;42.91
66670;DHT22;53568;52.164;4.472;2024-03-25T15:18:45;14.15;43.70
66670;DHT22;53568;52.164;4.472;2024-03-25T15:21:11;14.12;44.22
66670;DHT22;53568;52.164;4.472;2024-03-25T15:23:36;14.17;44.09
66670;DHT22;53568;52.164;4.472;2024-03-25T15:26:02;14.12;44.47
66670;DHT22;53568;52.164;4.472;2024-03-25T15:28:27;14.04;44.62
66670;DHT22;53568;52.164;4.472;2024-03-25T15:30:55;14.01;45.01
66670;DHT22;53568;52.164;4.472;2024-03-25T15:33:22;13.89;45.49
66670;DHT22;53568;52.164;4.472;2024-03-25T15:35:48;13.92;44.79